sensor_id;sensor_type;location;lat;lon;timestamp;pressure;altitude;pressure_sealevel;temperature;humidity
18500;BME280;9379;52.134;11.576;2023-03-03T00:00:53;101723.22;;;4.25;92.18
18500;BME280;9379;52.134;11.576;2023-03-03T00:03:22;101712.31;;;4.14;92.19
18500;BME280;9379;52.134;11.576;2023-03-03T00:05:50;101717.66;;;3.72;94.04
18500;BME280;9379;52.134;11.576;2023-03-03T00:08:17;101712.00;;;4.22;91.99
18500;BME280;9379;52.134;11.576;2023-03-03T00:10:44;101712.06;;;4.20;92.21
18500;BME280;9379;52.134;11.576;2023-03-03T00:13:15;101715.13;;;3.48;94.69
18500;BME280;9379;52.134;11.576;2023-03-03T00:15:42;101719.50;;;3.90;94.18
18500;BME280;9379;52.134;11.576;2023-03-03T00:18:21;101716.59;;;4.17;92.70
18500;BME280;9379;52.134;11.576;2023-03-03T00:20:55;101730.41;;;4.01;92.63
18500;BME280;9379;52.134;11.576;2023-03-03T00:23:27;101734.41;;;3.90;94.69
18500;BME280;9379;52.134;11.576;2023-03-03T00:25:56;101731.38;;;3.78;94.18
18500;BME280;9379;52.134;11.576;2023-03-03T00:28:25;101721.59;;;3.82;93.77
18500;BME280;9379;52.134;11.576;2023-03-03T00:33:26;101732.31;;;3.98;93.78
18500;BME280;9379;52.134;11.576;2023-03-03T00:35:54;101721.00;;;4.16;94.02
18500;BME280;9379;52.134;11.576;2023-03-03T00:38:22;101740.94;;;4.22;92.76
18500;BME280;9379;52.134;11.576;2023-03-03T00:40:49;101749.88;;;3.97;93.73
18500;BME280;9379;52.134;11.576;2023-03-03T00:43:20;101749.00;;;3.55;96.94
18500;BME280;9379;52.134;11.576;2023-03-03T00:45:48;101756.47;;;3.43;95.88
18500;BME280;9379;52.134;11.576;2023-03-03T00:48:24;101756.19;;;4.14;94.37
18500;BME280;9379;52.134;11.576;2023-03-03T00:50:52;101760.63;;;3.71;95.35
18500;BME280;9379;52.134;11.576;2023-03-03T00:53:21;101763.84;;;4.20;94.36
18500;BME280;9379;52.134;11.576;2023-03-03T00:55:50;101748.28;;;4.54;92.68
18500;BME280;9379;52.134;11.576;2023-03-03T00:58:17;101751.13;;;4.29;93.32
18500;BME280;9379;52.134;11.576;2023-03-03T01:00:46;101752.16;;;4.05;94.38
18500;BME280;9379;52.134;11.576;2023-03-03T01:03:14;101753.59;;;3.71;95.67
18500;BME280;9379;52.134;11.576;2023-03-03T01:05:43;101759.66;;;3.51;98.37
18500;BME280;9379;52.134;11.576;2023-03-03T01:08:10;101751.75;;;3.73;97.64
18500;BME280;9379;52.134;11.576;2023-03-03T01:10:39;101747.69;;;4.27;94.95
18500;BME280;9379;52.134;11.576;2023-03-03T01:13:07;101742.97;;;4.15;94.74
18500;BME280;9379;52.134;11.576;2023-03-03T01:15:35;101720.91;;;4.38;93.69
18500;BME280;9379;52.134;11.576;2023-03-03T01:18:03;101735.88;;;3.97;95.43
18500;BME280;9379;52.134;11.576;2023-03-03T01:20:30;101733.09;;;4.00;95.86
18500;BME280;9379;52.134;11.576;2023-03-03T01:22:58;101733.81;;;4.03;95.07
18500;BME280;9379;52.134;11.576;2023-03-03T01:25:25;101727.91;;;4.19;94.88
18500;BME280;9379;52.134;11.576;2023-03-03T01:27:51;101722.59;;;4.39;93.89
18500;BME280;9379;52.134;11.576;2023-03-03T01:30:18;101738.13;;;4.06;94.68
18500;BME280;9379;52.134;11.576;2023-03-03T01:32:45;101732.28;;;4.38;93.25
18500;BME280;9379;52.134;11.576;2023-03-03T01:35:12;101735.28;;;4.31;93.91
18500;BME280;9379;52.134;11.576;2023-03-03T01:37:39;101727.41;;;4.50;92.34
18500;BME280;9379;52.134;11.576;2023-03-03T01:40:13;101725.53;;;4.33;92.50
18500;BME280;9379;52.134;11.576;2023-03-03T01:42:42;101735.28;;;4.50;92.79
18500;BME280;9379;52.134;11.576;2023-03-03T01:45:16;101730.19;;;4.47;92.57
18500;BME280;9379;52.134;11.576;2023-03-03T01:47:47;101723.13;;;4.28;93.24
18500;BME280;9379;52.134;11.576;2023-03-03T01:50:20;101727.97;;;3.97;95.08
18500;BME280;9379;52.134;11.576;2023-03-03T01:52:52;101727.94;;;3.56;96.65
18500;BME280;9379;52.134;11.576;2023-03-03T01:55:22;101734.09;;;3.97;95.90
18500;BME280;9379;52.134;11.576;2023-03-03T01:57:54;101737.97;;;4.29;94.29
18500;BME280;9379;52.134;11.576;2023-03-03T02:00:23;101714.59;;;4.42;93.28
18500;BME280;9379;52.134;11.576;2023-03-03T02:02:50;101724.03;;;4.66;92.58
18500;BME280;9379;52.134;11.576;2023-03-03T02:05:18;101723.56;;;4.57;92.34
18500;BME280;9379;52.134;11.576;2023-03-03T02:07:45;101711.72;;;4.67;92.53
18500;BME280;9379;52.134;11.576;2023-03-03T02:10:14;101703.53;;;4.92;91.06
18500;BME280;9379;52.134;11.576;2023-03-03T02:12:45;101704.94;;;4.80;91.47
18500;BME280;9379;52.134;11.576;2023-03-03T02:15:19;101699.91;;;4.76;91.49
18500;BME280;9379;52.134;11.576;2023-03-03T02:17:47;101703.97;;;4.64;92.36
18500;BME280;9379;52.134;11.576;2023-03-03T02:20:21;101705.09;;;4.77;91.93
18500;BME280;9379;52.134;11.576;2023-03-03T02:22:55;101696.38;;;4.94;90.79
18500;BME280;9379;52.134;11.576;2023-03-03T02:25:30;101686.19;;;5.05;90.83
18500;BME280;9379;52.134;11.576;2023-03-03T02:28:00;101687.81;;;5.08;90.07
18500;BME280;9379;52.134;11.576;2023-03-03T02:30:28;101682.28;;;5.14;89.90
18500;BME280;9379;52.134;11.576;2023-03-03T02:32:54;101673.22;;;5.19;89.91
18500;BME280;9379;52.134;11.576;2023-03-03T02:35:27;101666.19;;;5.37;88.90
18500;BME280;9379;52.134;11.576;2023-03-03T02:37:56;101681.41;;;5.49;88.28
18500;BME280;9379;52.134;11.576;2023-03-03T02:40:27;101672.84;;;4.72;90.21
18500;BME280;9379;52.134;11.576;2023-03-03T02:42:57;101678.81;;;4.57;93.02
18500;BME280;9379;52.134;11.576;2023-03-03T02:45:26;101689.53;;;4.33;92.75
18500;BME280;9379;52.134;11.576;2023-03-03T02:47:56;101694.81;;;4.33;93.35
18500;BME280;9379;52.134;11.576;2023-03-03T02:50:22;101694.63;;;3.77;95.47
18500;BME280;9379;52.134;11.576;2023-03-03T02:53:17;101689.44;;;4.55;94.16
18500;BME280;9379;52.134;11.576;2023-03-03T02:55:44;101691.75;;;4.61;93.10
18500;BME280;9379;52.134;11.576;2023-03-03T02:58:10;101694.69;;;4.93;91.57
18500;BME280;9379;52.134;11.576;2023-03-03T03:00:57;101666.00;;;4.68;91.84
18500;BME280;9379;52.134;11.576;2023-03-03T03:03:24;101678.38;;;4.28;93.21
18500;BME280;9379;52.134;11.576;2023-03-03T03:05:51;101696.34;;;4.19;94.65
18500;BME280;9379;52.134;11.576;2023-03-03T03:08:17;101690.63;;;4.09;93.79
18500;BME280;9379;52.134;11.576;2023-03-03T03:10:44;101680.09;;;4.67;92.68
18500;BME280;9379;52.134;11.576;2023-03-03T03:13:11;101686.28;;;4.28;92.79
18500;BME280;9379;52.134;11.576;2023-03-03T03:15:53;101670.84;;;4.58;91.84
18500;BME280;9379;52.134;11.576;2023-03-03T03:18:21;101694.41;;;4.99;90.48
18500;BME280;9379;52.134;11.576;2023-03-03T03:20:48;101704.78;;;5.21;89.50
18500;BME280;9379;52.134;11.576;2023-03-03T03:23:16;101707.69;;;5.34;88.63
18500;BME280;9379;52.134;11.576;2023-03-03T03:25:43;101706.25;;;5.26;88.89
18500;BME280;9379;52.134;11.576;2023-03-03T03:28:11;101706.56;;;4.83;90.55
18500;BME280;9379;52.134;11.576;2023-03-03T03:39:31;101679.56;;;5.15;89.51
18500;BME280;9379;52.134;11.576;2023-03-03T03:41:58;101689.25;;;5.15;89.56
18500;BME280;9379;52.134;11.576;2023-03-03T03:44:25;101703.19;;;5.17;89.43
18500;BME280;9379;52.134;11.576;2023-03-03T03:46:52;101697.50;;;4.51;91.47
18500;BME280;9379;52.134;11.576;2023-03-03T03:49:19;101713.44;;;4.08;94.10
18500;BME280;9379;52.134;11.576;2023-03-03T03:51:46;101711.91;;;4.62;92.44
18500;BME280;9379;52.134;11.576;2023-03-03T03:54:13;101703.31;;;4.78;91.40
18500;BME280;9379;52.134;11.576;2023-03-03T03:56:41;101704.84;;;4.63;90.87
18500;BME280;9379;52.134;11.576;2023-03-03T03:59:08;101711.28;;;4.76;91.07
18500;BME280;9379;52.134;11.576;2023-03-03T04:01:35;101715.19;;;4.67;90.70
18500;BME280;9379;52.134;11.576;2023-03-03T04:04:01;101720.31;;;4.89;89.88
18500;BME280;9379;52.134;11.576;2023-03-03T04:06:29;101732.50;;;5.11;89.34
18500;BME280;9379;52.134;11.576;2023-03-03T04:08:56;101734.91;;;5.15;89.26
18500;BME280;9379;52.134;11.576;2023-03-03T04:11:23;101725.88;;;5.02;89.46
18500;BME280;9379;52.134;11.576;2023-03-03T04:13:51;101738.25;;;5.19;88.97
18500;BME280;9379;52.134;11.576;2023-03-03T04:16:17;101729.50;;;5.00;90.10
18500;BME280;9379;52.134;11.576;2023-03-03T04:18:44;101729.72;;;5.14;89.25
18500;BME280;9379;52.134;11.576;2023-03-03T04:21:11;101726.81;;;4.63;90.88
18500;BME280;9379;52.134;11.576;2023-03-03T04:24:09;101716.00;;;4.88;91.04
18500;BME280;9379;52.134;11.576;2023-03-03T04:26:36;101717.66;;;5.27;89.42
18500;BME280;9379;52.134;11.576;2023-03-03T04:29:05;101717.56;;;5.28;88.51
18500;BME280;9379;52.134;11.576;2023-03-03T04:31:32;101717.22;;;5.36;88.49
18500;BME280;9379;52.134;11.576;2023-03-03T04:34:01;101723.44;;;4.97;90.14
18500;BME280;9379;52.134;11.576;2023-03-03T04:36:28;101722.22;;;5.23;89.48
18500;BME280;9379;52.134;11.576;2023-03-03T04:38:55;101730.44;;;4.80;90.81
18500;BME280;9379;52.134;11.576;2023-03-03T04:41:22;101730.81;;;5.27;89.18
18500;BME280;9379;52.134;11.576;2023-03-03T04:43:49;101732.84;;;5.22;89.21
18500;BME280;9379;52.134;11.576;2023-03-03T04:46:17;101730.84;;;5.08;89.98
18500;BME280;9379;52.134;11.576;2023-03-03T04:48:44;101727.69;;;5.19;89.46
18500;BME280;9379;52.134;11.576;2023-03-03T04:51:10;101731.69;;;5.09;90.06
18500;BME280;9379;52.134;11.576;2023-03-03T04:53:41;101731.13;;;5.21;89.64
18500;BME280;9379;52.134;11.576;2023-03-03T04:56:08;101729.81;;;5.30;89.22
18500;BME280;9379;52.134;11.576;2023-03-03T04:58:34;101723.06;;;5.24;88.69
18500;BME280;9379;52.134;11.576;2023-03-03T05:01:01;101732.22;;;4.79;90.76
18500;BME280;9379;52.134;11.576;2023-03-03T05:03:30;101718.13;;;4.99;89.35
18500;BME280;9379;52.134;11.576;2023-03-03T05:05:56;101727.94;;;4.77;91.75
18500;BME280;9379;52.134;11.576;2023-03-03T05:08:23;101722.03;;;4.90;90.16
18500;BME280;9379;52.134;11.576;2023-03-03T05:10:51;101725.53;;;5.10;89.47
18500;BME280;9379;52.134;11.576;2023-03-03T05:13:18;101721.53;;;5.01;89.79
18500;BME280;9379;52.134;11.576;2023-03-03T05:15:48;101721.19;;;4.90;90.48
18500;BME280;9379;52.134;11.576;2023-03-03T05:18:15;101708.81;;;5.09;89.69
18500;BME280;9379;52.134;11.576;2023-03-03T05:20:43;101717.50;;;4.75;91.24
18500;BME280;9379;52.134;11.576;2023-03-03T05:23:10;101716.13;;;5.04;90.44
18500;BME280;9379;52.134;11.576;2023-03-03T05:25:39;101712.63;;;5.22;89.00
18500;BME280;9379;52.134;11.576;2023-03-03T05:28:05;101716.72;;;5.09;89.66
18500;BME280;9379;52.134;11.576;2023-03-03T05:30:33;101717.31;;;5.16;89.13
18500;BME280;9379;52.134;11.576;2023-03-03T05:33:00;101709.22;;;4.83;91.05
18500;BME280;9379;52.134;11.576;2023-03-03T05:35:26;101667.44;;;4.75;90.55
18500;BME280;9379;52.134;11.576;2023-03-03T05:37:55;101688.91;;;5.04;90.53
18500;BME280;9379;52.134;11.576;2023-03-03T05:40:22;101689.34;;;5.31;89.10
18500;BME280;9379;52.134;11.576;2023-03-03T05:42:49;101688.91;;;5.40;88.66
18500;BME280;9379;52.134;11.576;2023-03-03T05:45:17;101696.91;;;5.55;87.74
18500;BME280;9379;52.134;11.576;2023-03-03T05:47:45;101692.03;;;5.48;88.05
18500;BME280;9379;52.134;11.576;2023-03-03T05:50:12;101688.66;;;5.27;88.77
18500;BME280;9379;52.134;11.576;2023-03-03T05:52:39;101706.84;;;5.14;88.68
18500;BME280;9379;52.134;11.576;2023-03-03T05:55:09;101720.66;;;4.63;91.70
18500;BME280;9379;52.134;11.576;2023-03-03T05:57:36;101725.72;;;5.05;89.88
18500;BME280;9379;52.134;11.576;2023-03-03T06:00:04;101727.13;;;4.56;92.75
18500;BME280;9379;52.134;11.576;2023-03-03T06:02:31;101725.06;;;4.44;91.98
18500;BME280;9379;52.134;11.576;2023-03-03T06:04:58;101725.38;;;4.94;90.25
18500;BME280;9379;52.134;11.576;2023-03-03T06:07:24;101729.28;;;5.23;89.19
18500;BME280;9379;52.134;11.576;2023-03-03T06:09:51;101719.47;;;4.89;89.46
18500;BME280;9379;52.134;11.576;2023-03-03T06:12:19;101737.97;;;5.25;88.39
18500;BME280;9379;52.134;11.576;2023-03-03T06:14:46;101744.34;;;4.44;90.92
18500;BME280;9379;52.134;11.576;2023-03-03T06:17:13;101738.00;;;4.87;90.74
18500;BME280;9379;52.134;11.576;2023-03-03T06:19:40;101733.38;;;5.28;88.87
18500;BME280;9379;52.134;11.576;2023-03-03T06:22:07;101737.75;;;4.92;90.62
18500;BME280;9379;52.134;11.576;2023-03-03T06:24:34;101738.63;;;5.11;89.22
18500;BME280;9379;52.134;11.576;2023-03-03T06:27:01;101734.72;;;5.01;89.77
18500;BME280;9379;52.134;11.576;2023-03-03T06:29:29;101743.59;;;5.17;88.59
18500;BME280;9379;52.134;11.576;2023-03-03T06:31:56;101749.16;;;5.11;89.01
18500;BME280;9379;52.134;11.576;2023-03-03T06:34:23;101745.59;;;4.93;89.47
18500;BME280;9379;52.134;11.576;2023-03-03T06:36:50;101747.38;;;5.12;88.82
18500;BME280;9379;52.134;11.576;2023-03-03T06:39:17;101755.41;;;5.09;88.42
18500;BME280;9379;52.134;11.576;2023-03-03T06:41:43;101746.38;;;5.14;88.84
18500;BME280;9379;52.134;11.576;2023-03-03T06:44:10;101739.31;;;5.15;88.42
18500;BME280;9379;52.134;11.576;2023-03-03T06:46:38;101750.31;;;4.87;90.46
18500;BME280;9379;52.134;11.576;2023-03-03T06:49:05;101762.66;;;4.66;91.40
18500;BME280;9379;52.134;11.576;2023-03-03T06:51:33;101762.19;;;5.14;89.62
18500;BME280;9379;52.134;11.576;2023-03-03T06:54:10;101764.31;;;4.87;90.38
18500;BME280;9379;52.134;11.576;2023-03-03T06:56:37;101766.59;;;5.14;89.68
18500;BME280;9379;52.134;11.576;2023-03-03T06:59:10;101760.97;;;5.03;89.78
18500;BME280;9379;52.134;11.576;2023-03-03T07:01:39;101764.47;;;5.22;88.55
18500;BME280;9379;52.134;11.576;2023-03-03T07:04:13;101767.00;;;4.86;89.84
18500;BME280;9379;52.134;11.576;2023-03-03T07:06:41;101781.94;;;4.66;90.84
18500;BME280;9379;52.134;11.576;2023-03-03T07:09:13;101761.97;;;4.42;91.98
18500;BME280;9379;52.134;11.576;2023-03-03T07:11:44;101781.81;;;4.69;90.80
18500;BME280;9379;52.134;11.576;2023-03-03T07:14:15;101792.81;;;4.38;91.14
18500;BME280;9379;52.134;11.576;2023-03-03T07:16:43;101787.38;;;4.82;90.22
18500;BME280;9379;52.134;11.576;2023-03-03T07:19:17;101787.28;;;4.65;90.04
18500;BME280;9379;52.134;11.576;2023-03-03T07:21:45;101790.53;;;4.90;89.12
18500;BME280;9379;52.134;11.576;2023-03-03T07:24:24;101801.81;;;4.74;89.61
18500;BME280;9379;52.134;11.576;2023-03-03T07:26:54;101796.38;;;4.37;90.61
18500;BME280;9379;52.134;11.576;2023-03-03T07:29:25;101800.75;;;4.78;90.02
18500;BME280;9379;52.134;11.576;2023-03-03T07:31:55;101805.41;;;4.52;90.72
18500;BME280;9379;52.134;11.576;2023-03-03T07:34:23;101800.34;;;5.06;88.99
18500;BME280;9379;52.134;11.576;2023-03-03T07:36:53;101798.31;;;5.12;89.30
18500;BME280;9379;52.134;11.576;2023-03-03T07:39:29;101816.75;;;4.73;90.10
18500;BME280;9379;52.134;11.576;2023-03-03T07:42:14;101811.44;;;4.93;89.53
18500;BME280;9379;52.134;11.576;2023-03-03T07:44:43;101807.50;;;4.64;89.63
18500;BME280;9379;52.134;11.576;2023-03-03T07:47:17;101818.06;;;4.83;89.64
18500;BME280;9379;52.134;11.576;2023-03-03T07:49:45;101812.81;;;5.02;88.75
18500;BME280;9379;52.134;11.576;2023-03-03T07:52:23;101816.72;;;5.31;87.71
18500;BME280;9379;52.134;11.576;2023-03-03T07:54:51;101817.97;;;5.24;88.00
18500;BME280;9379;52.134;11.576;2023-03-03T07:57:22;101828.13;;;4.74;90.07
18500;BME280;9379;52.134;11.576;2023-03-03T07:59:54;101829.34;;;4.66;90.61
18500;BME280;9379;52.134;11.576;2023-03-03T08:02:42;101823.88;;;4.51;90.14
18500;BME280;9379;52.134;11.576;2023-03-03T08:05:30;101819.34;;;4.34;91.50
18500;BME280;9379;52.134;11.576;2023-03-03T08:08:09;101824.00;;;4.48;90.76
18500;BME280;9379;52.134;11.576;2023-03-03T08:10:42;101816.75;;;4.12;91.96
18500;BME280;9379;52.134;11.576;2023-03-03T08:13:16;101825.22;;;4.41;90.83
18500;BME280;9379;52.134;11.576;2023-03-03T08:15:44;101825.47;;;4.55;91.78
18500;BME280;9379;52.134;11.576;2023-03-03T08:18:22;101831.66;;;3.91;93.93
18500;BME280;9379;52.134;11.576;2023-03-03T08:20:54;101827.22;;;4.14;93.72
18500;BME280;9379;52.134;11.576;2023-03-03T08:23:21;101833.66;;;4.88;91.04
18500;BME280;9379;52.134;11.576;2023-03-03T08:25:50;101822.44;;;4.23;92.99
18500;BME280;9379;52.134;11.576;2023-03-03T08:28:17;101829.38;;;4.85;90.41
18500;BME280;9379;52.134;11.576;2023-03-03T08:30:44;101833.53;;;4.71;91.95
18500;BME280;9379;52.134;11.576;2023-03-03T08:33:11;101835.59;;;4.64;90.81
18500;BME280;9379;52.134;11.576;2023-03-03T08:35:40;101832.31;;;4.59;92.04
18500;BME280;9379;52.134;11.576;2023-03-03T08:38:08;101829.88;;;4.93;90.40
18500;BME280;9379;52.134;11.576;2023-03-03T08:40:35;101832.78;;;5.26;89.06
18500;BME280;9379;52.134;11.576;2023-03-03T08:43:02;101833.19;;;5.17;88.19
18500;BME280;9379;52.134;11.576;2023-03-03T08:45:30;101830.47;;;5.00;89.27
18500;BME280;9379;52.134;11.576;2023-03-03T08:47:57;101820.78;;;5.01;89.60
18500;BME280;9379;52.134;11.576;2023-03-03T08:50:25;101826.72;;;4.66;91.19
18500;BME280;9379;52.134;11.576;2023-03-03T08:52:53;101814.88;;;5.14;90.31
18500;BME280;9379;52.134;11.576;2023-03-03T08:55:21;101819.50;;;5.28;88.65
18500;BME280;9379;52.134;11.576;2023-03-03T08:57:48;101812.22;;;4.95;89.63
18500;BME280;9379;52.134;11.576;2023-03-03T09:00:16;101820.31;;;5.11;88.64
18500;BME280;9379;52.134;11.576;2023-03-03T09:02:43;101815.59;;;5.18;89.13
18500;BME280;9379;52.134;11.576;2023-03-03T09:05:11;101812.00;;;4.81;91.57
18500;BME280;9379;52.134;11.576;2023-03-03T09:07:38;101818.78;;;5.06;89.46
18500;BME280;9379;52.134;11.576;2023-03-03T09:10:07;101820.22;;;4.94;90.27
18500;BME280;9379;52.134;11.576;2023-03-03T09:12:36;101825.50;;;5.32;89.17
18500;BME280;9379;52.134;11.576;2023-03-03T09:15:13;101819.41;;;5.67;87.23
18500;BME280;9379;52.134;11.576;2023-03-03T09:17:41;101816.97;;;5.81;86.25
18500;BME280;9379;52.134;11.576;2023-03-03T09:20:22;101816.19;;;5.79;86.09
18500;BME280;9379;52.134;11.576;2023-03-03T09:22:50;101827.44;;;5.47;87.85
18500;BME280;9379;52.134;11.576;2023-03-03T09:25:22;101831.09;;;4.86;90.47
18500;BME280;9379;52.134;11.576;2023-03-03T09:27:53;101825.44;;;5.33;89.20
18500;BME280;9379;52.134;11.576;2023-03-03T09:30:36;101825.56;;;4.92;90.23
18500;BME280;9379;52.134;11.576;2023-03-03T09:33:22;101817.72;;;5.47;89.07
18500;BME280;9379;52.134;11.576;2023-03-03T09:35:51;101831.00;;;5.46;89.14
18500;BME280;9379;52.134;11.576;2023-03-03T09:38:27;101828.72;;;5.57;88.15
18500;BME280;9379;52.134;11.576;2023-03-03T09:41:26;101832.78;;;5.26;88.53
18500;BME280;9379;52.134;11.576;2023-03-03T09:44:18;101838.78;;;5.85;86.98
18500;BME280;9379;52.134;11.576;2023-03-03T09:46:55;101837.44;;;5.76;86.31
18500;BME280;9379;52.134;11.576;2023-03-03T09:49:30;101841.53;;;5.27;89.52
18500;BME280;9379;52.134;11.576;2023-03-03T09:52:24;101826.41;;;5.68;88.03
18500;BME280;9379;52.134;11.576;2023-03-03T09:55:07;101829.44;;;5.97;87.24
18500;BME280;9379;52.134;11.576;2023-03-03T09:57:51;101835.44;;;5.63;87.46
18500;BME280;9379;52.134;11.576;2023-03-03T10:00:30;101844.25;;;5.25;90.23
18500;BME280;9379;52.134;11.576;2023-03-03T10:03:29;101835.81;;;6.10;87.36
18500;BME280;9379;52.134;11.576;2023-03-03T10:06:02;101833.16;;;6.10;87.59
18500;BME280;9379;52.134;11.576;2023-03-03T10:08:48;101828.97;;;6.23;86.16
18500;BME280;9379;52.134;11.576;2023-03-03T10:11:21;101834.03;;;5.55;88.41
18500;BME280;9379;52.134;11.576;2023-03-03T10:14:06;101840.31;;;5.91;87.93
18500;BME280;9379;52.134;11.576;2023-03-03T10:16:50;101838.47;;;6.27;86.74
18500;BME280;9379;52.134;11.576;2023-03-03T10:19:31;101833.16;;;6.10;87.25
18500;BME280;9379;52.134;11.576;2023-03-03T10:22:11;101834.13;;;5.90;87.33
18500;BME280;9379;52.134;11.576;2023-03-03T10:24:50;101830.94;;;5.65;88.71
18500;BME280;9379;52.134;11.576;2023-03-03T10:27:37;101827.03;;;6.09;86.34
18500;BME280;9379;52.134;11.576;2023-03-03T10:30:16;101830.31;;;6.14;87.06
18500;BME280;9379;52.134;11.576;2023-03-03T10:32:53;101829.50;;;6.47;85.27
18500;BME280;9379;52.134;11.576;2023-03-03T10:35:40;101834.19;;;6.25;85.92
18500;BME280;9379;52.134;11.576;2023-03-03T10:38:28;101830.69;;;5.88;87.68
18500;BME280;9379;52.134;11.576;2023-03-03T10:41:07;101827.59;;;6.33;87.16
18500;BME280;9379;52.134;11.576;2023-03-03T10:43:49;101829.44;;;5.97;88.38
18500;BME280;9379;52.134;11.576;2023-03-03T10:46:41;101826.72;;;6.33;86.97
18500;BME280;9379;52.134;11.576;2023-03-03T10:49:19;101824.19;;;6.82;85.46
18500;BME280;9379;52.134;11.576;2023-03-03T10:52:02;101826.31;;;6.58;85.85
18500;BME280;9379;52.134;11.576;2023-03-03T10:54:47;101814.16;;;6.38;87.61
18500;BME280;9379;52.134;11.576;2023-03-03T10:57:23;101820.06;;;6.26;87.46
18500;BME280;9379;52.134;11.576;2023-03-03T11:00:02;101818.25;;;6.61;86.33
18500;BME280;9379;52.134;11.576;2023-03-03T11:02:45;101822.38;;;6.82;84.96
18500;BME280;9379;52.134;11.576;2023-03-03T11:05:27;101821.88;;;6.76;85.39
18500;BME280;9379;52.134;11.576;2023-03-03T11:07:56;101806.13;;;6.57;86.20
18500;BME280;9379;52.134;11.576;2023-03-03T11:10:36;101807.91;;;6.73;85.95
18500;BME280;9379;52.134;11.576;2023-03-03T11:13:16;101813.19;;;7.07;84.26
18500;BME280;9379;52.134;11.576;2023-03-03T11:15:53;101818.69;;;6.69;86.06
18500;BME280;9379;52.134;11.576;2023-03-03T11:18:40;101819.53;;;6.69;85.37
18500;BME280;9379;52.134;11.576;2023-03-03T11:21:15;101815.75;;;6.75;85.64
18500;BME280;9379;52.134;11.576;2023-03-03T11:23:57;101807.63;;;6.62;85.53
18500;BME280;9379;52.134;11.576;2023-03-03T11:29:56;101799.00;;;6.41;86.49
18500;BME280;9379;52.134;11.576;2023-03-03T11:32:34;101794.44;;;6.94;84.87
18500;BME280;9379;52.134;11.576;2023-03-03T11:35:18;101798.75;;;6.63;85.91
18500;BME280;9379;52.134;11.576;2023-03-03T11:37:56;101798.38;;;6.87;85.69
18500;BME280;9379;52.134;11.576;2023-03-03T11:40:31;101797.72;;;6.99;85.46
18500;BME280;9379;52.134;11.576;2023-03-03T11:43:02;101804.13;;;7.11;85.29
18500;BME280;9379;52.134;11.576;2023-03-03T11:45:37;101795.00;;;6.67;85.36
18500;BME280;9379;52.134;11.576;2023-03-03T11:48:13;101773.34;;;6.61;85.55
18500;BME280;9379;52.134;11.576;2023-03-03T11:50:48;101794.41;;;6.62;86.15
18500;BME280;9379;52.134;11.576;2023-03-03T11:53:39;101794.72;;;6.89;86.01
18500;BME280;9379;52.134;11.576;2023-03-03T11:56:18;101789.97;;;6.96;86.35
18500;BME280;9379;52.134;11.576;2023-03-03T11:58:56;101795.53;;;7.07;85.85
18500;BME280;9379;52.134;11.576;2023-03-03T12:01:29;101799.41;;;6.34;86.65
18500;BME280;9379;52.134;11.576;2023-03-03T12:04:00;101791.59;;;6.98;85.00
18500;BME280;9379;52.134;11.576;2023-03-03T12:06:35;101781.97;;;7.13;85.07
18500;BME280;9379;52.134;11.576;2023-03-03T12:09:29;101789.38;;;7.22;84.68
18500;BME280;9379;52.134;11.576;2023-03-03T12:12:04;101772.91;;;6.86;85.27
18500;BME280;9379;52.134;11.576;2023-03-03T12:14:47;101777.72;;;6.78;86.18
18500;BME280;9379;52.134;11.576;2023-03-03T12:17:31;101774.50;;;6.72;85.00
18500;BME280;9379;52.134;11.576;2023-03-03T12:20:07;101778.75;;;6.75;86.65
18500;BME280;9379;52.134;11.576;2023-03-03T12:22:46;101773.44;;;7.08;84.85
18500;BME280;9379;52.134;11.576;2023-03-03T12:25:22;101763.56;;;6.63;85.02
18500;BME280;9379;52.134;11.576;2023-03-03T12:27:55;101772.56;;;6.59;86.53
18500;BME280;9379;52.134;11.576;2023-03-03T12:30:55;101769.59;;;7.14;86.54
18500;BME280;9379;52.134;11.576;2023-03-03T12:33:34;101767.66;;;6.68;85.36
18500;BME280;9379;52.134;11.576;2023-03-03T12:36:15;101760.22;;;7.08;84.80
18500;BME280;9379;52.134;11.576;2023-03-03T12:38:55;101760.72;;;6.83;86.77
18500;BME280;9379;52.134;11.576;2023-03-03T12:41:30;101761.78;;;6.79;85.97
18500;BME280;9379;52.134;11.576;2023-03-03T12:44:05;101759.78;;;7.31;84.92
18500;BME280;9379;52.134;11.576;2023-03-03T12:46:42;101759.69;;;7.01;85.99
18500;BME280;9379;52.134;11.576;2023-03-03T12:49:10;101755.44;;;7.46;84.38
18500;BME280;9379;52.134;11.576;2023-03-03T12:51:46;101748.69;;;7.25;83.94
18500;BME280;9379;52.134;11.576;2023-03-03T12:54:38;101754.13;;;6.75;85.75
18500;BME280;9379;52.134;11.576;2023-03-03T12:57:18;101750.00;;;7.18;84.47
18500;BME280;9379;52.134;11.576;2023-03-03T12:59:53;101739.91;;;7.24;83.07
18500;BME280;9379;52.134;11.576;2023-03-03T13:02:44;101733.53;;;7.13;84.74
18500;BME280;9379;52.134;11.576;2023-03-03T13:05:20;101743.22;;;6.81;86.78
18500;BME280;9379;52.134;11.576;2023-03-03T13:07:56;101731.63;;;7.15;84.92
18500;BME280;9379;52.134;11.576;2023-03-03T13:10:34;101734.97;;;6.87;84.88
18500;BME280;9379;52.134;11.576;2023-03-03T13:13:09;101724.75;;;6.96;84.55
18500;BME280;9379;52.134;11.576;2023-03-03T13:15:41;101734.25;;;6.67;85.94
18500;BME280;9379;52.134;11.576;2023-03-03T13:18:24;101722.91;;;6.32;87.34
18500;BME280;9379;52.134;11.576;2023-03-03T13:21:00;101723.44;;;6.39;87.48
18500;BME280;9379;52.134;11.576;2023-03-03T13:23:40;101718.25;;;7.02;85.63
18500;BME280;9379;52.134;11.576;2023-03-03T13:26:17;101728.16;;;6.98;85.76
18500;BME280;9379;52.134;11.576;2023-03-03T13:28:56;101721.56;;;7.37;84.34
18500;BME280;9379;52.134;11.576;2023-03-03T13:31:30;101707.00;;;7.76;83.81
18500;BME280;9379;52.134;11.576;2023-03-03T13:33:59;101714.69;;;7.19;84.46
18500;BME280;9379;52.134;11.576;2023-03-03T13:36:30;101712.53;;;7.71;83.79
18500;BME280;9379;52.134;11.576;2023-03-03T13:39:02;101707.13;;;7.88;82.73
18500;BME280;9379;52.134;11.576;2023-03-03T13:41:39;101696.66;;;8.15;83.08